This is the latest recevied weather packets stored in our database for station/object dl9mfl-6. If no packets are shown the sender has not sent any weather packets the latest 10 day(s).
| Time | Temp. | Humidity | Pressure | Rain* | Wind** | Luminosity | Snow |
|---|---|---|---|---|---|---|---|
| 1777736518 | 25.56° C | 32% | 1015.8 hPa | 0 mm | - | - | - |
| 1777736514 | 13.33° C | 63% | 1020.6 hPa | 0 mm | - | - | - |
| 1777736510 | 12.78° C | 63% | 1020.6 hPa | 0 mm | - | - | - |
| 1777736506 | 12.78° C | 65% | 1020.6 hPa | 0 mm | - | - | - |
| 1777736501 | 12.78° C | 65% | 1020.6 hPa | 0 mm | - | - | - |
| 1777736498 | 12.78° C | 63% | 1020.6 hPa | 0 mm | - | - | - |
| 1777736489 | 12.78° C | 63% | 1020.6 hPa | 0 mm | - | - | - |
| 1777736485 | 12.22° C | 63% | 1020.6 hPa | 0 mm | - | - | - |
| 1777736481 | 12.22° C | 63% | 1020.6 hPa | 0 mm | - | - | - |
| 1777736477 | 12.22° C | 63% | 1020.6 hPa | 0 mm | - | - | - |
| 1777736473 | 12.22° C | 64% | 1020.6 hPa | 0 mm | - | - | - |
| 1777736465 | 12.22° C | 64% | 1020.6 hPa | 0 mm | - | - | - |
| 1777736460 | 12.22° C | 64% | 1020.6 hPa | 0 mm | - | - | - |
| 1777736457 | 25.56° C | 30% | 1015.8 hPa | 0 mm | - | - | - |
| 1777736453 | 11.67° C | 65% | 1020.6 hPa | 0 mm | - | - | - |
| 1777736448 | 11.67° C | 65% | 1020.6 hPa | 0 mm | - | - | - |
| 1777736444 | 11.67° C | 66% | 1020.6 hPa | 0 mm | - | - | - |
| 1777736436 | 11.67° C | 66% | 1020.6 hPa | 0 mm | - | - | - |
| 1777736432 | 11.67° C | 66% | 1020.7 hPa | 0 mm | - | - | - |
| 1777736428 | 11.11° C | 66% | 1020.7 hPa | 0 mm | - | - | - |
| 1777736424 | 11.11° C | 67% | 1020.7 hPa | 0 mm | - | - | - |
| 1777736420 | 11.11° C | 67% | 1020.7 hPa | 0 mm | - | - | - |
| 1777736411 | 11.11° C | 66% | 1020.7 hPa | 0 mm | - | - | - |
| 1777736407 | 11.11° C | 66% | 1020.7 hPa | 0 mm | - | - | - |
| 1777736399 | 25.56° C | 30% | 1015.8 hPa | 0 mm | - | - | - |
* Rain latest hour (hover to see other rain measurements)
** Current wind speed in m/s (hover to see current wind gust speed)